Terminal Aerodrome Forecast
Issued by NWS

Current Version | Previous Version | Text Only | Print | Product List | Glossary On
Versions: 1 2 3 4 5 6 7 8 9 10 11 12 13 14 15 16
000
FTUS42 KMLB 311736
TAFSUA
TAF
KSUA 311736Z 3118/0118 20010KT P6SM SCT020 BKN150
     FM312000 21012KT P6SM VCTS SCT040CB BKN070 BKN150
      TEMPO 3121/3123 5SM TSRA BKN030CB OVC050
     FM010000 23003KT P6SM FEW030 SCT150 BKN250
     FM011500 20009KT P6SM VCSH SCT020 BKN120=

USA.gov is the U.S. government's official web portal to all federal, state and local government web resources and services.